sensor_id;sensor_type;location;lat;lon;timestamp;pressure;altitude;pressure_sealevel;temperature
54306;BMP280;50434;45.188;5.712;2022-09-12T00:00:28;99355.41;;;20.32
54306;BMP280;50434;45.188;5.712;2022-09-12T00:02:55;99361.38;;;20.29
54306;BMP280;50434;45.188;5.712;2022-09-12T00:05:21;99351.63;;;20.28
54306;BMP280;50434;45.188;5.712;2022-09-12T00:07:47;99350.88;;;20.27
54306;BMP280;50434;45.188;5.712;2022-09-12T00:10:12;99351.47;;;20.26
54306;BMP280;50434;45.188;5.712;2022-09-12T00:12:38;99350.13;;;20.27
54306;BMP280;50434;45.188;5.712;2022-09-12T00:15:04;99359.19;;;20.27
54306;BMP280;50434;45.188;5.712;2022-09-12T00:17:33;99360.66;;;20.28
54306;BMP280;50434;45.188;5.712;2022-09-12T00:19:59;99361.38;;;20.29
54306;BMP280;50434;45.188;5.712;2022-09-12T00:22:24;99354.81;;;20.24
54306;BMP280;50434;45.188;5.712;2022-09-12T00:24:49;99363.13;;;20.24
54306;BMP280;50434;45.188;5.712;2022-09-12T00:27:15;99353.66;;;20.18
54306;BMP280;50434;45.188;5.712;2022-09-12T00:29:40;99362.84;;;20.20
54306;BMP280;50434;45.188;5.712;2022-09-12T00:32:05;99351.63;;;20.18
54306;BMP280;50434;45.188;5.712;2022-09-12T00:34:31;99354.38;;;20.18
54306;BMP280;50434;45.188;5.712;2022-09-12T00:36:56;99357.75;;;20.17
54306;BMP280;50434;45.188;5.712;2022-09-12T00:39:22;99364.00;;;20.17
54306;BMP280;50434;45.188;5.712;2022-09-12T00:41:47;99365.31;;;20.16
54306;BMP280;50434;45.188;5.712;2022-09-12T00:46:49;99351.94;;;20.13
54306;BMP280;50434;45.188;5.712;2022-09-12T00:52:09;99352.06;;;20.05
54306;BMP280;50434;45.188;5.712;2022-09-12T00:54:55;99345.94;;;20.07
54306;BMP280;50434;45.188;5.712;2022-09-12T00:57:27;99345.09;;;20.04
54306;BMP280;50434;45.188;5.712;2022-09-12T00:59:59;99345.09;;;20.04
54306;BMP280;50434;45.188;5.712;2022-09-12T01:02:26;99346.22;;;20.01
54306;BMP280;50434;45.188;5.712;2022-09-12T01:04:52;99356.16;;;19.95
54306;BMP280;50434;45.188;5.712;2022-09-12T01:07:18;99351.78;;;19.92
54306;BMP280;50434;45.188;5.712;2022-09-12T01:09:44;99345.63;;;19.93
54306;BMP280;50434;45.188;5.712;2022-09-12T01:12:12;99341.13;;;19.88
54306;BMP280;50434;45.188;5.712;2022-09-12T01:14:38;99342.00;;;19.91
54306;BMP280;50434;45.188;5.712;2022-09-12T01:17:04;99348.13;;;19.89
54306;BMP280;50434;45.188;5.712;2022-09-12T01:33:33;99330.50;;;19.66
54306;BMP280;50434;45.188;5.712;2022-09-12T01:39:00;99327.28;;;19.60
54306;BMP280;50434;45.188;5.712;2022-09-12T01:47:15;99339.06;;;19.50
54306;BMP280;50434;45.188;5.712;2022-09-12T01:50:10;99331.19;;;19.47
54306;BMP280;50434;45.188;5.712;2022-09-12T01:52:46;99318.53;;;19.44
54306;BMP280;50434;45.188;5.712;2022-09-12T01:55:29;99330.00;;;19.40
54306;BMP280;50434;45.188;5.712;2022-09-12T01:58:05;99325.34;;;19.43
54306;BMP280;50434;45.188;5.712;2022-09-12T02:00:34;99318.38;;;19.42
54306;BMP280;50434;45.188;5.712;2022-09-12T02:03:11;99317.06;;;19.43
54306;BMP280;50434;45.188;5.712;2022-09-12T02:05:49;99320.41;;;19.41
54306;BMP280;50434;45.188;5.712;2022-09-12T02:08:21;99316.06;;;19.38
54306;BMP280;50434;45.188;5.712;2022-09-12T02:10:53;99320.25;;;19.39
54306;BMP280;50434;45.188;5.712;2022-09-12T02:13:24;99330.75;;;19.41
54306;BMP280;50434;45.188;5.712;2022-09-12T02:15:57;99323.75;;;19.40
54306;BMP280;50434;45.188;5.712;2022-09-12T02:18:26;99322.13;;;19.37
54306;BMP280;50434;45.188;5.712;2022-09-12T02:20:53;99323.31;;;19.34
54306;BMP280;50434;45.188;5.712;2022-09-12T02:23:23;99316.47;;;19.35
54306;BMP280;50434;45.188;5.712;2022-09-12T02:25:52;99320.53;;;19.34
54306;BMP280;50434;45.188;5.712;2022-09-12T02:28:26;99320.53;;;19.34
54306;BMP280;50434;45.188;5.712;2022-09-12T02:36:14;99316.75;;;19.29
54306;BMP280;50434;45.188;5.712;2022-09-12T02:38:45;99318.75;;;19.19
54306;BMP280;50434;45.188;5.712;2022-09-12T02:41:14;99315.84;;;19.17
54306;BMP280;50434;45.188;5.712;2022-09-12T02:43:41;99310.31;;;19.17
54306;BMP280;50434;45.188;5.712;2022-09-12T02:46:11;99314.53;;;19.18
54306;BMP280;50434;45.188;5.712;2022-09-12T02:48:39;99312.94;;;19.15
54306;BMP280;50434;45.188;5.712;2022-09-12T02:51:07;99311.34;;;19.12
54306;BMP280;50434;45.188;5.712;2022-09-12T02:53:32;99313.38;;;19.12
54306;BMP280;50434;45.188;5.712;2022-09-12T02:55:58;99311.88;;;19.11
54306;BMP280;50434;45.188;5.712;2022-09-12T02:58:29;99310.72;;;19.14
54306;BMP280;50434;45.188;5.712;2022-09-12T03:07:37;99311.75;;;19.09
54306;BMP280;50434;45.188;5.712;2022-09-12T03:10:03;99308.81;;;19.07
54306;BMP280;50434;45.188;5.712;2022-09-12T03:12:44;99305.63;;;19.10
54306;BMP280;50434;45.188;5.712;2022-09-12T03:18:41;99309.38;;;18.96
54306;BMP280;50434;45.188;5.712;2022-09-12T03:24:12;99312.97;;;18.89
54306;BMP280;50434;45.188;5.712;2022-09-12T03:29:07;99321.66;;;18.76
54306;BMP280;50434;45.188;5.712;2022-09-12T03:31:33;99310.09;;;18.70
54306;BMP280;50434;45.188;5.712;2022-09-12T03:33:59;99318.41;;;18.70
54306;BMP280;50434;45.188;5.712;2022-09-12T03:36:27;99317.38;;;18.65
54306;BMP280;50434;45.188;5.712;2022-09-12T03:38:53;99313.88;;;18.65
54306;BMP280;50434;45.188;5.712;2022-09-12T03:41:19;99315.91;;;18.64
54306;BMP280;50434;45.188;5.712;2022-09-12T03:43:45;99309.50;;;18.62
54306;BMP280;50434;45.188;5.712;2022-09-12T03:46:10;99309.31;;;18.59
54306;BMP280;50434;45.188;5.712;2022-09-12T03:48:36;99314.72;;;18.58
54306;BMP280;50434;45.188;5.712;2022-09-12T03:51:03;99309.03;;;18.55
54306;BMP280;50434;45.188;5.712;2022-09-12T03:53:30;99314.41;;;18.53
54306;BMP280;50434;45.188;5.712;2022-09-12T03:55:56;99318.72;;;18.47
54306;BMP280;50434;45.188;5.712;2022-09-12T03:58:22;99315.22;;;18.46
54306;BMP280;50434;45.188;5.712;2022-09-12T04:00:48;99317.69;;;18.42
54306;BMP280;50434;45.188;5.712;2022-09-12T04:03:13;99311.25;;;18.40
54306;BMP280;50434;45.188;5.712;2022-09-12T04:05:39;99316.22;;;18.41
54306;BMP280;50434;45.188;5.712;2022-09-12T04:08:04;99312.44;;;18.46
54306;BMP280;50434;45.188;5.712;2022-09-12T04:10:30;99305.09;;;18.49
54306;BMP280;50434;45.188;5.712;2022-09-12T04:12:56;99315.41;;;18.48
54306;BMP280;50434;45.188;5.712;2022-09-12T04:15:21;99319.03;;;18.51
54306;BMP280;50434;45.188;5.712;2022-09-12T04:17:47;99314.06;;;18.49
54306;BMP280;50434;45.188;5.712;2022-09-12T04:20:12;99306.13;;;18.53
54306;BMP280;50434;45.188;5.712;2022-09-12T04:22:37;99318.63;;;18.54
54306;BMP280;50434;45.188;5.712;2022-09-12T04:25:03;99325.03;;;18.57
54306;BMP280;50434;45.188;5.712;2022-09-12T04:27:29;99318.75;;;18.56
54306;BMP280;50434;45.188;5.712;2022-09-12T04:29:55;99318.63;;;18.54
54306;BMP280;50434;45.188;5.712;2022-09-12T04:32:21;99321.53;;;18.56
54306;BMP280;50434;45.188;5.712;2022-09-12T04:34:46;99322.25;;;18.57
54306;BMP280;50434;45.188;5.712;2022-09-12T04:37:12;99315.25;;;18.56
54306;BMP280;50434;45.188;5.712;2022-09-12T04:39:39;99310.47;;;18.56
54306;BMP280;50434;45.188;5.712;2022-09-12T04:42:05;99318.22;;;18.58
54306;BMP280;50434;45.188;5.712;2022-09-12T04:44:30;99309.88;;;18.48
54306;BMP280;50434;45.188;5.712;2022-09-12T04:46:56;99307.13;;;18.48
54306;BMP280;50434;45.188;5.712;2022-09-12T04:49:22;99320.91;;;18.48
54306;BMP280;50434;45.188;5.712;2022-09-12T04:51:47;99318.16;;;18.48
54306;BMP280;50434;45.188;5.712;2022-09-12T04:54:15;99315.41;;;18.48
54306;BMP280;50434;45.188;5.712;2022-09-12T04:56:43;99312.78;;;18.50
54306;BMP280;50434;45.188;5.712;2022-09-12T04:59:10;99322.31;;;18.40
54306;BMP280;50434;45.188;5.712;2022-09-12T05:01:36;99322.72;;;18.36
54306;BMP280;50434;45.188;5.712;2022-09-12T05:04:01;99327.22;;;18.32
54306;BMP280;50434;45.188;5.712;2022-09-12T05:06:30;99324.84;;;18.28
54306;BMP280;50434;45.188;5.712;2022-09-12T05:08:55;99330.38;;;18.28
54306;BMP280;50434;45.188;5.712;2022-09-12T05:11:26;99337.03;;;18.25
54306;BMP280;50434;45.188;5.712;2022-09-12T05:13:52;99343.53;;;18.20
54306;BMP280;50434;45.188;5.712;2022-09-12T05:16:19;99344.41;;;18.23
54306;BMP280;50434;45.188;5.712;2022-09-12T05:18:45;99333.47;;;18.15
54306;BMP280;50434;45.188;5.712;2022-09-12T05:21:13;99338.19;;;18.22
54306;BMP280;50434;45.188;5.712;2022-09-12T05:23:39;99328.13;;;18.17
54306;BMP280;50434;45.188;5.712;2022-09-12T05:26:05;99337.28;;;18.20
54306;BMP280;50434;45.188;5.712;2022-09-12T05:28:34;99340.03;;;18.20
54306;BMP280;50434;45.188;5.712;2022-09-12T05:33:29;99346.22;;;18.11
54306;BMP280;50434;45.188;5.712;2022-09-12T05:35:55;99338.84;;;18.13
54306;BMP280;50434;45.188;5.712;2022-09-12T05:38:20;99338.41;;;18.17
54306;BMP280;50434;45.188;5.712;2022-09-12T05:40:45;99344.09;;;18.19
54306;BMP280;50434;45.188;5.712;2022-09-12T05:43:11;99348.88;;;18.18
54306;BMP280;50434;45.188;5.712;2022-09-12T05:45:37;99347.75;;;18.21
54306;BMP280;50434;45.188;5.712;2022-09-12T05:48:03;99342.25;;;18.21
54306;BMP280;50434;45.188;5.712;2022-09-12T05:50:28;99347.97;;;18.16
54306;BMP280;50434;45.188;5.712;2022-09-12T05:52:55;99349.72;;;18.11
54306;BMP280;50434;45.188;5.712;2022-09-12T05:55:21;99343.69;;;18.05
54306;BMP280;50434;45.188;5.712;2022-09-12T05:57:49;99357.66;;;18.07
54306;BMP280;50434;45.188;5.712;2022-09-12T06:00:14;99363.19;;;18.07
54306;BMP280;50434;45.188;5.712;2022-09-12T06:02:40;99363.91;;;18.08
54306;BMP280;50434;45.188;5.712;2022-09-12T06:05:05;99363.31;;;18.09
54306;BMP280;50434;45.188;5.712;2022-09-12T06:07:31;99359.13;;;18.08
54306;BMP280;50434;45.188;5.712;2022-09-12T06:09:57;99365.03;;;18.05
54306;BMP280;50434;45.188;5.712;2022-09-12T06:12:25;99354.56;;;18.03
54306;BMP280;50434;45.188;5.712;2022-09-12T06:14:52;99361.72;;;18.06
54306;BMP280;50434;45.188;5.712;2022-09-12T06:17:18;99360.41;;;18.07
54306;BMP280;50434;45.188;5.712;2022-09-12T06:19:43;99362.84;;;18.03
54306;BMP280;50434;45.188;5.712;2022-09-12T06:22:10;99355.47;;;18.06
54306;BMP280;50434;45.188;5.712;2022-09-12T06:24:35;99356.50;;;18.10
54306;BMP280;50434;45.188;5.712;2022-09-12T06:27:01;99359.75;;;18.16
54306;BMP280;50434;45.188;5.712;2022-09-12T06:29:27;99361.38;;;18.19
54306;BMP280;50434;45.188;5.712;2022-09-12T06:31:52;99349.38;;;18.24
54306;BMP280;50434;45.188;5.712;2022-09-12T06:34:18;99350.66;;;18.23
54306;BMP280;50434;45.188;5.712;2022-09-12T06:36:49;99358.81;;;18.21
54306;BMP280;50434;45.188;5.712;2022-09-12T06:39:21;99362.03;;;18.27
54306;BMP280;50434;45.188;5.712;2022-09-12T06:41:48;99362.03;;;18.27
54306;BMP280;50434;45.188;5.712;2022-09-12T06:44:21;99357.22;;;18.28
54306;BMP280;50434;45.188;5.712;2022-09-12T06:46:47;99360.00;;;18.28
54306;BMP280;50434;45.188;5.712;2022-09-12T06:49:13;99347.25;;;18.32
54306;BMP280;50434;45.188;5.712;2022-09-12T06:51:39;99346.25;;;18.37
54306;BMP280;50434;45.188;5.712;2022-09-12T06:54:06;99339.88;;;18.35
54306;BMP280;50434;45.188;5.712;2022-09-12T06:56:31;99343.09;;;18.41
54306;BMP280;50434;45.188;5.712;2022-09-12T06:58:58;99343.00;;;18.48
54306;BMP280;50434;45.188;5.712;2022-09-12T07:01:28;99346.63;;;18.51
54306;BMP280;50434;45.188;5.712;2022-09-12T07:03:56;99328.22;;;18.53
54306;BMP280;50434;45.188;5.712;2022-09-12T07:06:27;99330.41;;;18.55
54306;BMP280;50434;45.188;5.712;2022-09-12T07:08:57;99331.28;;;18.58
54306;BMP280;50434;45.188;5.712;2022-09-12T07:11:25;99343.31;;;18.52
54306;BMP280;50434;45.188;5.712;2022-09-12T07:13:53;99341.28;;;18.53
54306;BMP280;50434;45.188;5.712;2022-09-12T07:16:19;99337.31;;;18.46
54306;BMP280;50434;45.188;5.712;2022-09-12T07:18:52;99342.19;;;18.55
54306;BMP280;50434;45.188;5.712;2022-09-12T07:21:19;99340.63;;;18.62
54306;BMP280;50434;45.188;5.712;2022-09-12T07:23:45;99356.34;;;18.69
54306;BMP280;50434;45.188;5.712;2022-09-12T07:26:12;99343.44;;;18.72
54306;BMP280;50434;45.188;5.712;2022-09-12T07:28:38;99343.19;;;18.77
54306;BMP280;50434;45.188;5.712;2022-09-12T07:31:15;99344.97;;;18.82
54306;BMP280;50434;45.188;5.712;2022-09-12T07:33:42;99343.22;;;18.87
54306;BMP280;50434;45.188;5.712;2022-09-12T07:36:12;99340.03;;;18.90
54306;BMP280;50434;45.188;5.712;2022-09-12T07:38:38;99340.81;;;19.00
54306;BMP280;50434;45.188;5.712;2022-09-12T07:41:16;99332.09;;;19.04
54306;BMP280;50434;45.188;5.712;2022-09-12T07:43:46;99327.91;;;19.12
54306;BMP280;50434;45.188;5.712;2022-09-12T07:46:12;99331.69;;;19.17
54306;BMP280;50434;45.188;5.712;2022-09-12T07:48:39;99334.91;;;19.23
54306;BMP280;50434;45.188;5.712;2022-09-12T07:51:09;99333.91;;;19.28
54306;BMP280;50434;45.188;5.712;2022-09-12T07:53:38;99327.81;;;19.29
54306;BMP280;50434;45.188;5.712;2022-09-12T07:56:05;99328.84;;;19.34
54306;BMP280;50434;45.188;5.712;2022-09-12T07:58:32;99317.94;;;19.36
54306;BMP280;50434;45.188;5.712;2022-09-12T08:01:05;99334.25;;;19.41
54306;BMP280;50434;45.188;5.712;2022-09-12T08:03:35;99332.50;;;19.46
54306;BMP280;50434;45.188;5.712;2022-09-12T08:06:15;99330.44;;;19.46
54306;BMP280;50434;45.188;5.712;2022-09-12T08:08:43;99335.00;;;19.52
54306;BMP280;50434;45.188;5.712;2022-09-12T08:11:11;99328.44;;;19.57
54306;BMP280;50434;45.188;5.712;2022-09-12T08:13:37;99331.06;;;19.64
54306;BMP280;50434;45.188;5.712;2022-09-12T08:16:06;99331.25;;;19.66
54306;BMP280;50434;45.188;5.712;2022-09-12T08:18:33;99331.81;;;19.74
54306;BMP280;50434;45.188;5.712;2022-09-12T08:21:04;99331.69;;;19.82
54306;BMP280;50434;45.188;5.712;2022-09-12T08:23:30;99322.94;;;19.85
54306;BMP280;50434;45.188;5.712;2022-09-12T08:25:59;99324.81;;;19.92
54306;BMP280;50434;45.188;5.712;2022-09-12T08:28:28;99318.13;;;19.95
54306;BMP280;50434;45.188;5.712;2022-09-12T08:30:53;99324.22;;;20.03
54306;BMP280;50434;45.188;5.712;2022-09-12T08:33:20;99332.69;;;20.05
54306;BMP280;50434;45.188;5.712;2022-09-12T08:35:46;99327.03;;;20.13
54306;BMP280;50434;45.188;5.712;2022-09-12T08:38:12;99328.72;;;20.18
54306;BMP280;50434;45.188;5.712;2022-09-12T08:40:51;99313.72;;;20.21
54306;BMP280;50434;45.188;5.712;2022-09-12T08:46:27;99319.53;;;20.34
54306;BMP280;50434;45.188;5.712;2022-09-12T08:48:56;99318.38;;;20.37
54306;BMP280;50434;45.188;5.712;2022-09-12T08:51:23;99315.88;;;20.41
54306;BMP280;50434;45.188;5.712;2022-09-12T08:53:50;99317.03;;;20.48
54306;BMP280;50434;45.188;5.712;2022-09-12T08:56:18;99325.75;;;20.54
54306;BMP280;50434;45.188;5.712;2022-09-12T08:58:44;99318.56;;;20.61
54306;BMP280;50434;45.188;5.712;2022-09-12T09:01:27;99317.66;;;20.68
54306;BMP280;50434;45.188;5.712;2022-09-12T09:18:14;99291.66;;;21.34
54306;BMP280;50434;45.188;5.712;2022-09-12T09:20:55;99286.47;;;21.61
54306;BMP280;50434;45.188;5.712;2022-09-12T09:23:34;99291.22;;;21.70
54306;BMP280;50434;45.188;5.712;2022-09-12T09:29:05;99285.66;;;21.70
54306;BMP280;50434;45.188;5.712;2022-09-12T09:31:38;99286.75;;;21.65
54306;BMP280;50434;45.188;5.712;2022-09-12T09:34:25;99289.41;;;21.63
54306;BMP280;50434;45.188;5.712;2022-09-12T09:42:26;99277.22;;;21.68
54306;BMP280;50434;45.188;5.712;2022-09-12T09:44:58;99269.00;;;21.70
54306;BMP280;50434;45.188;5.712;2022-09-12T09:47:24;99278.34;;;21.75
54306;BMP280;50434;45.188;5.712;2022-09-12T09:49:50;99273.06;;;21.90
54306;BMP280;50434;45.188;5.712;2022-09-12T09:52:28;99271.38;;;21.97
54306;BMP280;50434;45.188;5.712;2022-09-12T09:55:00;99269.72;;;22.03
54306;BMP280;50434;45.188;5.712;2022-09-12T10:05:52;99256.00;;;22.28
54306;BMP280;50434;45.188;5.712;2022-09-12T10:08:27;99257.69;;;22.33
54306;BMP280;50434;45.188;5.712;2022-09-12T10:13:26;99250.47;;;22.40
54306;BMP280;50434;45.188;5.712;2022-09-12T10:15:58;99249.84;;;22.53
54306;BMP280;50434;45.188;5.712;2022-09-12T10:18:41;99244.53;;;22.69
54306;BMP280;50434;45.188;5.712;2022-09-12T10:24:19;99237.53;;;23.16
54306;BMP280;50434;45.188;5.712;2022-09-12T10:26:50;99225.66;;;23.15
54306;BMP280;50434;45.188;5.712;2022-09-12T10:29:22;99225.41;;;23.23
54306;BMP280;50434;45.188;5.712;2022-09-12T10:31:51;99227.81;;;23.28
54306;BMP280;50434;45.188;5.712;2022-09-12T10:36:53;99217.66;;;23.33
54306;BMP280;50434;45.188;5.712;2022-09-12T10:39:19;99219.44;;;23.40
54306;BMP280;50434;45.188;5.712;2022-09-12T10:41:46;99208.00;;;23.47
54306;BMP280;50434;45.188;5.712;2022-09-12T10:44:17;99202.78;;;23.53
54306;BMP280;50434;45.188;5.712;2022-09-12T10:46:44;99207.94;;;23.59
54306;BMP280;50434;45.188;5.712;2022-09-12T10:49:27;99208.28;;;23.65
54306;BMP280;50434;45.188;5.712;2022-09-12T10:51:54;99203.75;;;23.71
54306;BMP280;50434;45.188;5.712;2022-09-12T10:54:25;99200.69;;;23.79
54306;BMP280;50434;45.188;5.712;2022-09-12T10:57:03;99199.94;;;23.79
54306;BMP280;50434;45.188;5.712;2022-09-12T11:02:01;99189.84;;;23.85
54306;BMP280;50434;45.188;5.712;2022-09-12T11:08:06;99187.50;;;23.93
54306;BMP280;50434;45.188;5.712;2022-09-12T11:16:51;99178.31;;;24.04
54306;BMP280;50434;45.188;5.712;2022-09-12T11:25:29;99177.19;;;24.09
54306;BMP280;50434;45.188;5.712;2022-09-12T11:30:25;99170.28;;;24.10
54306;BMP280;50434;45.188;5.712;2022-09-12T11:33:06;99169.69;;;24.12
54306;BMP280;50434;45.188;5.712;2022-09-12T11:35:50;99164.72;;;24.10
54306;BMP280;50434;45.188;5.712;2022-09-12T11:38:37;99162.75;;;24.13
54306;BMP280;50434;45.188;5.712;2022-09-12T11:41:24;99162.75;;;24.13
54306;BMP280;50434;45.188;5.712;2022-09-12T11:43:57;99167.69;;;24.28
54306;BMP280;50434;45.188;5.712;2022-09-12T11:46:36;99161.81;;;24.35
54306;BMP280;50434;45.188;5.712;2022-09-12T11:52:00;99163.13;;;24.48
54306;BMP280;50434;45.188;5.712;2022-09-12T12:00:17;99138.53;;;24.58
54306;BMP280;50434;45.188;5.712;2022-09-12T12:08:25;99134.09;;;24.66
54306;BMP280;50434;45.188;5.712;2022-09-12T12:10:54;99131.53;;;24.70
54306;BMP280;50434;45.188;5.712;2022-09-12T12:13:27;99127.03;;;24.79
54306;BMP280;50434;45.188;5.712;2022-09-12T12:15:59;99125.97;;;24.86
54306;BMP280;50434;45.188;5.712;2022-09-12T12:18:29;99122.34;;;24.97
54306;BMP280;50434;45.188;5.712;2022-09-12T12:20:56;99134.50;;;25.04
54306;BMP280;50434;45.188;5.712;2022-09-12T12:29:12;99124.34;;;25.26
54306;BMP280;50434;45.188;5.712;2022-09-12T12:34:32;99127.44;;;25.32
54306;BMP280;50434;45.188;5.712;2022-09-12T12:44:58;99106.72;;;25.37
54306;BMP280;50434;45.188;5.712;2022-09-12T12:47:40;99096.53;;;25.43
54306;BMP280;50434;45.188;5.712;2022-09-12T12:50:23;99091.16;;;25.47
54306;BMP280;50434;45.188;5.712;2022-09-12T12:52:59;99084.31;;;25.50
54306;BMP280;50434;45.188;5.712;2022-09-12T12:55:33;99080.16;;;25.51
54306;BMP280;50434;45.188;5.712;2022-09-12T12:58:01;99072.50;;;25.52
54306;BMP280;50434;45.188;5.712;2022-09-12T13:00:33;99076.44;;;25.62
54306;BMP280;50434;45.188;5.712;2022-09-12T13:05:50;99063.44;;;25.69
54306;BMP280;50434;45.188;5.712;2022-09-12T13:11:14;99059.75;;;25.80
54306;BMP280;50434;45.188;5.712;2022-09-12T13:14:05;99045.47;;;25.89
54306;BMP280;50434;45.188;5.712;2022-09-12T13:19:12;99046.53;;;25.98
54306;BMP280;50434;45.188;5.712;2022-09-12T13:22:03;99035.50;;;26.02
54306;BMP280;50434;45.188;5.712;2022-09-12T13:24:28;99039.41;;;26.10
54306;BMP280;50434;45.188;5.712;2022-09-12T13:26:56;99040.91;;;26.13
54306;BMP280;50434;45.188;5.712;2022-09-12T13:29:25;99043.78;;;26.15
54306;BMP280;50434;45.188;5.712;2022-09-12T13:31:57;99029.19;;;26.17
54306;BMP280;50434;45.188;5.712;2022-09-12T13:36:56;99026.13;;;26.46
54306;BMP280;50434;45.188;5.712;2022-09-12T13:39:28;99032.03;;;26.54
54306;BMP280;50434;45.188;5.712;2022-09-12T13:44:24;99023.41;;;26.66
54306;BMP280;50434;45.188;5.712;2022-09-12T13:46:51;99017.22;;;26.69
54306;BMP280;50434;45.188;5.712;2022-09-12T13:49:22;99009.56;;;26.70
54306;BMP280;50434;45.188;5.712;2022-09-12T13:52:19;99013.00;;;26.68
54306;BMP280;50434;45.188;5.712;2022-09-12T13:54:49;99003.81;;;26.66
54306;BMP280;50434;45.188;5.712;2022-09-12T13:57:29;99010.03;;;26.64
54306;BMP280;50434;45.188;5.712;2022-09-12T13:59:56;99000.31;;;26.65
54306;BMP280;50434;45.188;5.712;2022-09-12T14:02:24;99000.13;;;26.61
54306;BMP280;50434;45.188;5.712;2022-09-12T14:04:51;99000.22;;;26.63
54306;BMP280;50434;45.188;5.712;2022-09-12T14:07:51;98998.28;;;26.68
54306;BMP280;50434;45.188;5.712;2022-09-12T14:10:29;99000.53;;;26.71
54306;BMP280;50434;45.188;5.712;2022-09-12T14:12:57;98988.03;;;26.74
54306;BMP280;50434;45.188;5.712;2022-09-12T14:15:26;98981.09;;;26.75
54306;BMP280;50434;45.188;5.712;2022-09-12T14:17:54;98976.59;;;26.86
54306;BMP280;50434;45.188;5.712;2022-09-12T14:20:22;98979.53;;;26.90
54306;BMP280;50434;45.188;5.712;2022-09-12T14:22:50;98980.28;;;26.90
54306;BMP280;50434;45.188;5.712;2022-09-12T14:25:21;98979.13;;;26.97
54306;BMP280;50434;45.188;5.712;2022-09-12T14:27:54;98975.75;;;27.01
54306;BMP280;50434;45.188;5.712;2022-09-12T14:30:26;98978.78;;;27.07
54306;BMP280;50434;45.188;5.712;2022-09-12T14:33:18;98973.06;;;27.05
54306;BMP280;50434;45.188;5.712;2022-09-12T14:36:15;98975.09;;;27.02
54306;BMP280;50434;45.188;5.712;2022-09-12T14:38:44;98974.16;;;26.96
54306;BMP280;50434;45.188;5.712;2022-09-12T14:41:12;98972.13;;;26.98
54306;BMP280;50434;45.188;5.712;2022-09-12T14:43:51;98967.28;;;26.99
54306;BMP280;50434;45.188;5.712;2022-09-12T14:46:29;98963.94;;;27.04
54306;BMP280;50434;45.188;5.712;2022-09-12T14:48:59;98971.06;;;27.07
54306;BMP280;50434;45.188;5.712;2022-09-12T14:51:30;98963.69;;;27.16
54306;BMP280;50434;45.188;5.712;2022-09-12T14:53:55;98962.53;;;27.23
54306;BMP280;50434;45.188;5.712;2022-09-12T14:56:40;98965.09;;;27.36
54306;BMP280;50434;45.188;5.712;2022-09-12T15:02:20;98960.25;;;27.58
54306;BMP280;50434;45.188;5.712;2022-09-12T15:04:51;98963.78;;;27.59
54306;BMP280;50434;45.188;5.712;2022-09-12T15:09:48;98953.00;;;27.51
54306;BMP280;50434;45.188;5.712;2022-09-12T15:12:13;98957.78;;;27.47
54306;BMP280;50434;45.188;5.712;2022-09-12T15:14:39;98953.78;;;27.54
54306;BMP280;50434;45.188;5.712;2022-09-12T15:17:04;98949.69;;;27.57
54306;BMP280;50434;45.188;5.712;2022-09-12T15:19:30;98947.53;;;27.55
54306;BMP280;50434;45.188;5.712;2022-09-12T15:21:55;98950.16;;;27.49
54306;BMP280;50434;45.188;5.712;2022-09-12T15:24:20;98956.84;;;27.40
54306;BMP280;50434;45.188;5.712;2022-09-12T15:26:46;98947.00;;;27.39
54306;BMP280;50434;45.188;5.712;2022-09-12T15:29:11;98943.31;;;27.35
54306;BMP280;50434;45.188;5.712;2022-09-12T15:31:38;98937.59;;;27.31
54306;BMP280;50434;45.188;5.712;2022-09-12T15:34:04;98941.56;;;27.24
54306;BMP280;50434;45.188;5.712;2022-09-12T15:36:30;98942.28;;;27.24
54306;BMP280;50434;45.188;5.712;2022-09-12T15:38:55;98941.13;;;27.31
54306;BMP280;50434;45.188;5.712;2022-09-12T15:41:25;98932.81;;;27.33
54306;BMP280;50434;45.188;5.712;2022-09-12T15:43:52;98935.44;;;27.29
54306;BMP280;50434;45.188;5.712;2022-09-12T15:46:18;98935.25;;;27.23
54306;BMP280;50434;45.188;5.712;2022-09-12T15:48:44;98928.22;;;27.22
54306;BMP280;50434;45.188;5.712;2022-09-12T15:51:15;98918.38;;;27.21
54306;BMP280;50434;45.188;5.712;2022-09-12T15:53:41;98919.09;;;27.22
54306;BMP280;50434;45.188;5.712;2022-09-12T15:56:07;98919.69;;;27.18
54306;BMP280;50434;45.188;5.712;2022-09-12T15:58:34;98915.38;;;27.15
54306;BMP280;50434;45.188;5.712;2022-09-12T16:01:00;98916.69;;;27.12
54306;BMP280;50434;45.188;5.712;2022-09-12T16:03:27;98910.31;;;27.10
54306;BMP280;50434;45.188;5.712;2022-09-12T16:06:02;98909.56;;;27.09
54306;BMP280;50434;45.188;5.712;2022-09-12T16:08:29;98910.88;;;27.06
54306;BMP280;50434;45.188;5.712;2022-09-12T16:11:11;98907.97;;;27.04
54306;BMP280;50434;45.188;5.712;2022-09-12T16:13:37;98907.97;;;27.04
54306;BMP280;50434;45.188;5.712;2022-09-12T16:16:03;98908.69;;;27.05
54306;BMP280;50434;45.188;5.712;2022-09-12T16:18:28;98898.06;;;27.01
54306;BMP280;50434;45.188;5.712;2022-09-12T16:20:54;98896.53;;;26.96
54306;BMP280;50434;45.188;5.712;2022-09-12T16:23:20;98895.66;;;26.92
54306;BMP280;50434;45.188;5.712;2022-09-12T16:26:03;98896.22;;;26.88
54306;BMP280;50434;45.188;5.712;2022-09-12T16:28:29;98896.81;;;26.85
54306;BMP280;50434;45.188;5.712;2022-09-12T16:30:58;98893.94;;;26.83
54306;BMP280;50434;45.188;5.712;2022-09-12T16:33:25;98900.19;;;26.81
54306;BMP280;50434;45.188;5.712;2022-09-12T16:35:51;98895.81;;;26.76
54306;BMP280;50434;45.188;5.712;2022-09-12T16:38:20;98898.41;;;26.70
54306;BMP280;50434;45.188;5.712;2022-09-12T16:40:48;98900.38;;;26.68
54306;BMP280;50434;45.188;5.712;2022-09-12T16:43:14;98896.81;;;26.65
54306;BMP280;50434;45.188;5.712;2022-09-12T16:45:42;98895.22;;;26.60
54306;BMP280;50434;45.188;5.712;2022-09-12T16:48:08;98891.56;;;26.56
54306;BMP280;50434;45.188;5.712;2022-09-12T16:50:33;98894.22;;;26.52
54306;BMP280;50434;45.188;5.712;2022-09-12T16:52:59;98891.41;;;26.52
54306;BMP280;50434;45.188;5.712;2022-09-12T16:55:24;98888.63;;;26.52
54306;BMP280;50434;45.188;5.712;2022-09-12T16:57:49;98894.84;;;26.50
54306;BMP280;50434;45.188;5.712;2022-09-12T17:00:15;98889.13;;;26.46
54306;BMP280;50434;45.188;5.712;2022-09-12T17:02:41;98887.75;;;26.47
54306;BMP280;50434;45.188;5.712;2022-09-12T17:05:06;98889.63;;;26.41